West Lebanon, Indiana
Current Conditions -  °F | °C
As of 12:15 PM on Friday 19 Dec 2014 (Local Time) from KDNV Reporting Station
Overcast Overcast  
Wind Chill: 27°   Ceiling: 2800
Heat Index: 27°   Visibility: 7mi
Dew Point: 23°   Wind: 3mph
Humidity: 84%   Direction: 320°NW
Pressure: 30.26"   Gusts: NA
Location:  40.27°N, 87.39°W
Report Text: KDNV 191715Z AUTO 32003KT 7SM OVC028 M03/M05 A3026 RMK AO2 T10261050
Loading
Personal Weather Stations






























Interactive Weather Map New forecast layout! Learn more

10-Day Weather Forecast

Advertisements
Track Severe Weather on mobile